Time;durP1;ratioP1;P1;durP2;ratioP2;P2;SDS_P1;SDS_P2;PMS_P1;PMS_P2;Temp;Humidity;BMP_temperature;BMP_pressure;BME280_temperature;BME280_humidity;BME280_pressure;Samples;Min_cycle;Max_cycle;Signal;HPM_P1;HPM_P2
2022/03/28 00:01:10;;;;;;;12.82;4.88;;;6.20;99.90;;;;;;5094422;28;20032;-67
2022/03/28 00:03:36;;;;;;;10.60;4.63;;;6.30;99.90;;;;;;5090850;28;20036;-69
2022/03/28 00:06:03;;;;;;;10.88;4.03;;;6.30;99.90;;;;;;5092572;28;20036;-68
2022/03/28 00:08:29;;;;;;;16.27;3.63;;;6.30;99.90;;;;;;5090519;28;20099;-68
2022/03/28 00:10:55;;;;;;;13.48;4.07;;;6.30;99.90;;;;;;5094705;28;20038;-68
2022/03/28 00:13:21;;;;;;;15.30;4.50;;;6.30;99.90;;;;;;5094080;28;20122;-68
2022/03/28 00:15:46;;;;;;;10.00;3.72;;;6.30;99.90;;;;;;5085984;28;20800;-68
2022/03/28 00:18:12;;;;;;;12.23;3.72;;;6.30;99.90;;;;;;5093044;28;20052;-68
2022/03/28 00:20:39;;;;;;;10.73;4.15;;;6.30;99.90;;;;;;5093129;28;20091;-68
2022/03/28 00:23:05;;;;;;;10.80;3.60;;;6.40;99.90;;;;;;5091961;28;20534;-68
2022/03/28 00:25:31;;;;;;;9.20;3.55;;;6.30;99.90;;;;;;5090630;28;20024;-68
2022/03/28 00:27:57;;;;;;;8.88;3.22;;;6.30;99.90;;;;;;5095253;28;20020;-68
2022/03/28 00:30:22;;;;;;;10.23;3.53;;;6.30;99.90;;;;;;5086843;28;20035;-67
2022/03/28 00:32:48;;;;;;;10.43;3.33;;;6.30;99.90;;;;;;5091315;28;20024;-69
2022/03/28 00:35:14;;;;;;;8.73;3.00;;;6.30;99.90;;;;;;5091699;28;20051;-68
2022/03/28 00:37:41;;;;;;;8.88;3.30;;;6.30;99.90;;;;;;5088476;28;20036;-69
2022/03/28 00:40:08;;;;;;;8.95;3.03;;;6.30;99.90;;;;;;5090702;28;20055;-67
2022/03/28 00:42:36;;;;;;;11.63;3.70;;;6.40;99.90;;;;;;5086138;28;20051;-67
2022/03/28 00:45:06;;;;;;;9.32;3.65;;;6.30;99.90;;;;;;5084447;28;20028;-68
2022/03/28 00:47:33;;;;;;;9.15;3.30;;;6.40;99.90;;;;;;5094559;28;20054;-68
2022/03/28 00:49:59;;;;;;;9.20;3.47;;;6.40;99.90;;;;;;5086005;28;20024;-67
2022/03/28 00:52:25;;;;;;;9.88;3.92;;;6.40;99.90;;;;;;5089997;28;20026;-68
2022/03/28 00:54:51;;;;;;;9.52;3.38;;;6.40;99.90;;;;;;5091626;28;20020;-67
2022/03/28 00:57:17;;;;;;;10.05;3.65;;;6.40;99.90;;;;;;5089652;28;20020;-67
2022/03/28 00:59:44;;;;;;;11.95;3.88;;;6.30;99.90;;;;;;5087687;28;20032;-67
2022/03/28 01:02:10;;;;;;;10.95;3.60;;;6.30;99.90;;;;;;5087340;28;20028;-68
2022/03/28 01:04:39;;;;;;;13.80;4.25;;;6.40;99.90;;;;;;5089410;28;20025;-68
2022/03/28 01:07:08;;;;;;;13.07;4.70;;;6.40;99.90;;;;;;5091546;28;20024;-68
2022/03/28 01:09:34;;;;;;;11.68;4.80;;;6.40;99.90;;;;;;5092684;28;20024;-68
2022/03/28 01:12:01;;;;;;;11.55;4.22;;;6.40;99.90;;;;;;5085625;28;20108;-67
2022/03/28 01:14:27;;;;;;;12.27;4.95;;;6.50;99.90;;;;;;5085437;28;20029;-67
2022/03/28 01:19:37;;;;;;;13.10;5.45;;;6.50;99.90;;;;;;5092434;28;20066;-67
2022/03/28 01:22:03;;;;;;;13.77;5.38;;;6.40;99.90;;;;;;5089010;28;20052;-67
2022/03/28 01:24:30;;;;;;;14.82;5.43;;;6.50;99.90;;;;;;5084859;28;20038;-67
2022/03/28 01:26:58;;;;;;;13.18;5.05;;;6.40;99.90;;;;;;5089601;28;20035;-68
2022/03/28 01:29:25;;;;;;;13.85;5.90;;;6.40;99.90;;;;;;5092570;28;20028;-68
2022/03/28 01:31:50;;;;;;;17.17;5.93;;;6.40;99.90;;;;;;5091036;28;20394;-67
2022/03/28 01:34:20;;;;;;;24.48;6.78;;;6.40;99.90;;;;;;5090691;28;20096;-67
2022/03/28 01:36:47;;;;;;;22.10;7.20;;;6.30;99.90;;;;;;5092981;28;20024;-67
2022/03/28 01:39:14;;;;;;;16.77;7.00;;;6.30;99.90;;;;;;5083980;28;20048;-67
2022/03/28 01:41:39;;;;;;;17.25;7.03;;;6.30;99.90;;;;;;5084967;28;20025;-68
2022/03/28 01:44:05;;;;;;;31.13;8.18;;;6.30;99.90;;;;;;5082294;28;20028;-69
2022/03/28 01:46:38;;;;;;;69.03;10.35;;;6.20;99.90;;;;;;5093780;28;20077;-68
2022/03/28 01:49:04;;;;;;;25.85;8.75;;;6.20;99.90;;;;;;5085205;28;20028;-67
2022/03/28 01:51:31;;;;;;;38.03;10.30;;;6.20;99.90;;;;;;5093665;28;20028;-68
2022/03/28 01:53:59;;;;;;;22.67;9.23;;;6.20;99.90;;;;;;5085922;28;20124;-68
2022/03/28 01:56:25;;;;;;;28.55;9.13;;;6.20;99.90;;;;;;5091606;28;20036;-68
2022/03/28 01:58:51;;;;;;;20.67;8.93;;;6.10;99.90;;;;;;5091133;28;20101;-68
2022/03/28 02:01:16;;;;;;;28.75;10.27;;;6.20;99.90;;;;;;5087703;28;20021;-67
2022/03/28 02:03:42;;;;;;;21.85;9.32;;;6.10;99.90;;;;;;5086552;28;20104;-68
2022/03/28 02:06:09;;;;;;;33.67;10.07;;;6.20;99.90;;;;;;5091667;28;20036;-68
2022/03/28 02:08:35;;;;;;;26.00;10.00;;;6.20;99.90;;;;;;5089814;28;20032;-68
2022/03/28 02:11:01;;;;;;;26.52;11.15;;;6.10;99.90;;;;;;5091575;28;20031;-68
2022/03/28 02:13:26;;;;;;;24.00;10.93;;;6.10;99.90;;;;;;5088391;28;20020;-69
2022/03/28 02:15:52;;;;;;;26.38;11.13;;;6.10;99.90;;;;;;5093723;28;20020;-68
2022/03/28 02:18:18;;;;;;;29.08;11.07;;;6.20;99.90;;;;;;5091331;28;20036;-69
2022/03/28 02:20:43;;;;;;;36.20;12.00;;;6.20;99.90;;;;;;5093085;28;20087;-68
2022/03/28 02:23:09;;;;;;;28.40;11.05;;;6.20;99.90;;;;;;5090125;28;20032;-69
2022/03/28 02:25:37;;;;;;;49.63;11.75;;;6.30;99.90;;;;;;5088349;28;20040;-66
2022/03/28 02:28:03;;;;;;;39.42;12.32;;;6.30;99.90;;;;;;5069254;28;20041;-66
2022/03/28 02:30:30;;;;;;;33.13;11.07;;;6.20;99.90;;;;;;5087820;28;20021;-66
2022/03/28 02:32:56;;;;;;;27.70;11.23;;;6.20;99.90;;;;;;5088428;28;20039;-66
2022/03/28 02:35:23;;;;;;;61.30;14.02;;;6.20;99.90;;;;;;5087242;28;20028;-67
2022/03/28 02:37:48;;;;;;;32.13;11.38;;;6.30;99.90;;;;;;5094027;28;20032;-66
2022/03/28 02:40:14;;;;;;;34.42;11.02;;;6.20;99.90;;;;;;5089944;28;20118;-66
2022/03/28 02:42:40;;;;;;;56.50;13.10;;;6.20;99.90;;;;;;5085706;28;21198;-66
2022/03/28 02:45:06;;;;;;;32.05;12.07;;;6.20;99.90;;;;;;5095714;28;20036;-67
2022/03/28 02:47:32;;;;;;;61.00;14.00;;;6.20;99.90;;;;;;5090298;28;20028;-66
2022/03/28 02:49:58;;;;;;;36.97;13.73;;;6.20;99.90;;;;;;5092102;28;20034;-66
2022/03/28 02:52:23;;;;;;;26.98;11.88;;;6.20;99.90;;;;;;5087365;28;20087;-66
2022/03/28 02:54:49;;;;;;;68.63;15.65;;;6.20;99.90;;;;;;5096560;28;20088;-66
2022/03/28 02:57:15;;;;;;;57.60;16.30;;;6.30;99.90;;;;;;5086471;28;20083;-66
2022/03/28 02:59:41;;;;;;;56.97;16.65;;;6.30;99.90;;;;;;5089538;28;20037;-66
2022/03/28 03:02:07;;;;;;;92.78;18.23;;;6.20;99.90;;;;;;5087545;28;20032;-66
2022/03/28 03:04:33;;;;;;;46.00;16.23;;;6.20;99.90;;;;;;5088971;28;20040;-67
2022/03/28 03:06:59;;;;;;;75.13;18.92;;;6.20;99.90;;;;;;5093998;28;20028;-66
2022/03/28 03:09:25;;;;;;;57.72;19.00;;;6.20;99.90;;;;;;5089955;28;20051;-66
2022/03/28 03:11:51;;;;;;;45.15;16.80;;;6.20;99.90;;;;;;5095608;28;20116;-66
2022/03/28 03:14:17;;;;;;;68.10;19.63;;;6.10;99.90;;;;;;5088681;28;20044;-66
2022/03/28 03:16:43;;;;;;;69.00;17.48;;;6.10;99.90;;;;;;5088198;28;20024;-66
2022/03/28 03:19:09;;;;;;;49.53;17.27;;;6.10;99.90;;;;;;5089854;28;20046;-66
2022/03/28 03:21:35;;;;;;;50.03;18.17;;;6.10;99.90;;;;;;5092045;28;20099;-67
2022/03/28 03:24:02;;;;;;;57.38;16.70;;;6.10;99.90;;;;;;5089039;28;20024;-66
2022/03/28 03:26:28;;;;;;;61.22;17.40;;;6.20;99.90;;;;;;5088725;28;20144;-66
2022/03/28 03:28:55;;;;;;;86.60;19.23;;;6.10;99.90;;;;;;5090111;28;20036;-66
2022/03/28 03:31:22;;;;;;;41.33;15.73;;;6.10;99.90;;;;;;5091551;28;20016;-66
2022/03/28 03:33:47;;;;;;;59.28;17.83;;;6.10;99.90;;;;;;5080078;28;20028;-66
2022/03/28 03:36:13;;;;;;;43.65;15.65;;;6.10;99.90;;;;;;5097397;28;20110;-66
2022/03/28 03:38:39;;;;;;;41.90;16.10;;;6.10;99.90;;;;;;5088618;28;20040;-66
2022/03/28 03:41:04;;;;;;;56.95;17.08;;;6.10;99.90;;;;;;5097921;28;20032;-66
2022/03/28 03:43:30;;;;;;;40.88;17.17;;;6.20;99.90;;;;;;5088673;28;20036;-67
2022/03/28 03:45:56;;;;;;;37.90;16.00;;;6.10;99.90;;;;;;5093360;28;20043;-66
2022/03/28 03:48:22;;;;;;;100.40;17.58;;;6.20;99.90;;;;;;5082835;28;20032;-66
2022/03/28 03:50:48;;;;;;;32.67;14.88;;;6.00;99.90;;;;;;5091392;28;20345;-66
2022/03/28 03:53:14;;;;;;;38.58;14.23;;;6.10;99.90;;;;;;5088894;28;20044;-66
2022/03/28 03:55:40;;;;;;;46.03;14.77;;;6.00;99.90;;;;;;5082908;28;20028;-66
2022/03/28 03:58:06;;;;;;;47.10;15.88;;;6.10;99.90;;;;;;5088710;28;20032;-66
2022/03/28 04:00:31;;;;;;;37.85;15.40;;;6.10;99.90;;;;;;5086888;28;20032;-66
2022/03/28 04:02:57;;;;;;;68.80;18.00;;;6.10;99.90;;;;;;5087693;28;20070;-66
2022/03/28 04:05:23;;;;;;;34.35;15.45;;;6.10;99.90;;;;;;5087841;28;20488;-66
2022/03/28 04:07:48;;;;;;;30.45;13.98;;;6.20;99.90;;;;;;5089965;28;20052;-67
2022/03/28 04:10:14;;;;;;;30.35;15.07;;;6.10;99.90;;;;;;5087777;28;20024;-66
2022/03/28 04:12:40;;;;;;;37.85;15.73;;;6.20;99.90;;;;;;5090348;28;20115;-66
2022/03/28 04:15:07;;;;;;;41.05;17.33;;;6.20;99.90;;;;;;5088456;28;20458;-66
2022/03/28 04:17:43;;;;;;;34.95;15.57;;;6.10;99.90;;;;;;5088790;28;20046;-66
2022/03/28 04:20:14;;;;;;;35.28;14.88;;;6.10;99.90;;;;;;5086515;28;20037;-69
2022/03/28 04:22:43;;;;;;;52.20;14.80;;;6.10;99.90;;;;;;5087955;28;21177;-66
2022/03/28 04:25:09;;;;;;;28.42;13.88;;;6.00;99.90;;;;;;5090061;28;20587;-66
2022/03/28 04:27:36;;;;;;;62.22;16.33;;;6.00;99.90;;;;;;5095474;28;20024;-66
2022/03/28 04:30:07;;;;;;;28.65;14.18;;;6.00;99.90;;;;;;5085328;28;20050;-66
2022/03/28 04:32:32;;;;;;;29.52;14.55;;;6.00;99.90;;;;;;5087500;28;20054;-67
2022/03/28 04:34:58;;;;;;;31.58;14.48;;;6.00;99.90;;;;;;5087913;28;20167;-66
2022/03/28 04:37:24;;;;;;;33.47;15.43;;;6.00;99.90;;;;;;5085055;28;20031;-67
2022/03/28 04:39:49;;;;;;;34.47;16.58;;;6.00;99.90;;;;;;5094420;28;20040;-67
2022/03/28 04:42:15;;;;;;;32.33;16.60;;;5.90;99.90;;;;;;5095284;28;20038;-66
2022/03/28 04:44:41;;;;;;;33.58;15.85;;;6.00;99.90;;;;;;5087855;28;20028;-67
2022/03/28 04:47:07;;;;;;;32.88;15.43;;;6.00;99.90;;;;;;5087188;28;20092;-67
2022/03/28 04:49:33;;;;;;;28.70;14.85;;;6.00;99.90;;;;;;5086445;28;20024;-67
2022/03/28 04:51:59;;;;;;;30.48;14.95;;;6.00;99.90;;;;;;5087884;28;20045;-67
2022/03/28 04:54:24;;;;;;;28.92;14.60;;;6.00;99.90;;;;;;5088651;28;20508;-67
2022/03/28 04:56:50;;;;;;;27.77;15.45;;;6.00;99.90;;;;;;5087710;28;20036;-67
2022/03/28 04:59:16;;;;;;;29.33;14.73;;;6.00;99.90;;;;;;5089618;28;20074;-67
2022/03/28 05:01:42;;;;;;;33.45;15.05;;;6.00;99.90;;;;;;5095056;28;20039;-67
2022/03/28 05:04:07;;;;;;;32.00;15.43;;;5.90;99.90;;;;;;5090741;28;20063;-68
2022/03/28 05:06:33;;;;;;;33.22;15.77;;;5.80;99.90;;;;;;5090881;28;20413;-67
2022/03/28 05:08:59;;;;;;;29.10;16.02;;;5.80;99.90;;;;;;5085673;28;20021;-67
2022/03/28 05:11:25;;;;;;;31.35;15.90;;;5.80;99.90;;;;;;5093607;28;20108;-67
2022/03/28 05:13:50;;;;;;;33.47;16.30;;;5.80;99.90;;;;;;5083936;28;20047;-67
2022/03/28 05:16:17;;;;;;;43.30;17.15;;;5.70;99.90;;;;;;5084225;28;20033;-67
2022/03/28 05:18:43;;;;;;;34.50;17.45;;;5.70;99.90;;;;;;5090211;28;20043;-67
2022/03/28 05:21:09;;;;;;;36.28;18.20;;;5.70;99.90;;;;;;5082195;28;20025;-67
2022/03/28 05:23:34;;;;;;;36.88;18.70;;;5.60;99.90;;;;;;5088567;28;21426;-68
2022/03/28 05:26:02;;;;;;;38.38;19.10;;;5.60;99.90;;;;;;5088473;28;20028;-67
2022/03/28 05:28:27;;;;;;;38.08;19.35;;;5.60;99.90;;;;;;5088554;28;21068;-67
2022/03/28 05:30:53;;;;;;;40.40;20.67;;;5.70;99.90;;;;;;5076743;28;20028;-67
2022/03/28 05:33:18;;;;;;;40.83;20.40;;;5.70;99.90;;;;;;5092705;28;20054;-66
2022/03/28 05:35:44;;;;;;;42.35;19.75;;;5.70;99.90;;;;;;5089789;28;20052;-67
2022/03/28 05:38:11;;;;;;;40.55;21.45;;;5.70;99.90;;;;;;5095563;28;20474;-67
2022/03/28 05:40:37;;;;;;;47.33;21.98;;;5.70;99.90;;;;;;5070231;28;20036;-67
2022/03/28 05:43:03;;;;;;;44.30;22.08;;;5.70;99.90;;;;;;5093009;28;20115;-67
2022/03/28 05:45:31;;;;;;;42.83;21.00;;;5.70;99.90;;;;;;5084479;28;20451;-67
2022/03/28 05:47:57;;;;;;;42.28;19.40;;;5.70;99.90;;;;;;5087201;28;20673;-67
2022/03/28 05:50:23;;;;;;;37.08;18.35;;;5.70;99.90;;;;;;5087159;28;20028;-67
2022/03/28 05:52:48;;;;;;;36.63;17.63;;;5.60;99.90;;;;;;5085484;28;20036;-67
2022/03/28 05:55:14;;;;;;;38.15;17.63;;;5.60;99.90;;;;;;5090443;28;20038;-67
2022/03/28 05:57:40;;;;;;;34.55;15.68;;;5.70;99.90;;;;;;5090644;28;20410;-68
2022/03/28 06:00:09;;;;;;;32.55;16.42;;;5.60;99.90;;;;;;5087514;28;20485;-68
2022/03/28 06:02:41;;;;;;;28.55;14.90;;;5.60;99.90;;;;;;5092096;28;20056;-68
2022/03/28 06:05:07;;;;;;;30.70;14.38;;;5.60;99.90;;;;;;5088120;28;20036;-67
2022/03/28 06:07:33;;;;;;;27.20;13.15;;;5.60;99.90;;;;;;5095301;28;20028;-68
2022/03/28 06:09:59;;;;;;;24.42;12.98;;;5.60;99.90;;;;;;5083089;28;20024;-68
2022/03/28 06:12:24;;;;;;;25.95;13.10;;;5.70;99.90;;;;;;5087446;28;20027;-68
2022/03/28 06:14:50;;;;;;;28.00;13.45;;;5.70;99.90;;;;;;5086873;28;20032;-67
2022/03/28 06:17:23;;;;;;;29.13;13.90;;;5.70;99.90;;;;;;5089813;28;20029;-68
2022/03/28 06:19:49;;;;;;;27.40;13.30;;;5.70;99.90;;;;;;5094865;28;20063;-66
2022/03/28 06:22:15;;;;;;;27.85;12.50;;;5.70;99.90;;;;;;5099296;28;20371;-66
2022/03/28 06:24:41;;;;;;;36.50;11.93;;;5.70;99.90;;;;;;5093569;28;20076;-66
2022/03/28 06:27:07;;;;;;;26.67;11.35;;;5.70;99.90;;;;;;5096501;28;20077;-66
2022/03/28 06:29:33;;;;;;;21.67;10.75;;;5.70;99.90;;;;;;5093999;28;20024;-65
2022/03/28 06:31:59;;;;;;;23.42;10.35;;;5.60;99.90;;;;;;5086287;28;20040;-66
2022/03/28 06:34:24;;;;;;;21.60;10.25;;;5.70;99.90;;;;;;5085554;28;20721;-65
2022/03/28 06:36:51;;;;;;;20.75;10.20;;;5.70;99.90;;;;;;5090902;28;20052;-66
2022/03/28 06:39:17;;;;;;;20.02;9.23;;;5.80;99.90;;;;;;5097333;28;20048;-65
2022/03/28 06:41:42;;;;;;;21.92;8.38;;;5.70;99.90;;;;;;5086174;28;20603;-65
2022/03/28 06:44:11;;;;;;;23.80;8.55;;;5.70;99.90;;;;;;5088355;28;20111;-69
2022/03/28 06:46:38;;;;;;;21.17;9.43;;;5.60;99.90;;;;;;5097946;28;20073;-68
2022/03/28 06:49:04;;;;;;;17.60;8.60;;;5.70;99.90;;;;;;5097747;28;20108;-67
2022/03/28 06:51:29;;;;;;;29.67;8.57;;;5.80;99.90;;;;;;5093732;28;20021;-68
2022/03/28 06:53:55;;;;;;;17.88;7.85;;;5.70;99.90;;;;;;5093318;28;20039;-68
2022/03/28 06:56:21;;;;;;;16.58;7.25;;;5.80;99.90;;;;;;5100793;28;20028;-68
2022/03/28 06:58:46;;;;;;;15.25;6.80;;;5.80;99.90;;;;;;5085878;28;20051;-68
2022/03/28 07:01:12;;;;;;;15.32;6.53;;;5.90;99.90;;;;;;5092382;28;20070;-67
2022/03/28 07:03:38;;;;;;;13.63;5.65;;;5.90;99.90;;;;;;5074528;28;20092;-67
2022/03/28 07:06:04;;;;;;;14.27;6.10;;;6.00;99.90;;;;;;5091460;28;20016;-66
2022/03/28 07:08:30;;;;;;;15.20;6.07;;;6.00;99.90;;;;;;5085849;28;20025;-67
2022/03/28 07:10:58;;;;;;;14.23;6.00;;;6.00;99.90;;;;;;5098187;28;20131;-66
2022/03/28 07:13:23;;;;;;;12.68;6.05;;;6.00;99.90;;;;;;5090837;28;20025;-66
2022/03/28 07:15:49;;;;;;;13.27;5.63;;;6.10;99.90;;;;;;5097010;28;20034;-67
2022/03/28 07:18:16;;;;;;;14.43;5.88;;;6.10;99.90;;;;;;5088239;28;20040;-66
2022/03/28 07:20:43;;;;;;;12.98;6.25;;;5.90;99.90;;;;;;5093489;28;20141;-67
2022/03/28 07:23:09;;;;;;;14.38;6.05;;;6.10;99.90;;;;;;5095459;28;20024;-67
2022/03/28 07:25:36;;;;;;;14.02;6.00;;;6.20;99.90;;;;;;5092646;28;20114;-67
2022/03/28 07:28:12;;;;;;;14.68;5.93;;;6.20;99.90;;;;;;5099212;28;20502;-67
2022/03/28 07:30:40;;;;;;;13.23;5.93;;;6.30;99.90;;;;;;5093329;28;20020;-67
2022/03/28 07:33:09;;;;;;;13.65;6.43;;;6.20;99.90;;;;;;5090628;28;20028;-67
2022/03/28 07:35:35;;;;;;;13.43;6.25;;;6.30;99.90;;;;;;5096881;28;20051;-67
2022/03/28 07:38:10;;;;;;;15.57;7.07;;;6.20;99.90;;;;;;5087340;28;20519;-67
2022/03/28 07:40:40;;;;;;;15.55;6.60;;;6.20;99.90;;;;;;5083222;28;20044;-67
2022/03/28 07:43:07;;;;;;;14.20;6.63;;;6.20;99.90;;;;;;5096437;28;20020;-67
2022/03/28 07:45:33;;;;;;;16.83;6.68;;;6.30;99.90;;;;;;5088036;28;20040;-67
2022/03/28 07:47:59;;;;;;;15.98;7.10;;;6.30;99.90;;;;;;5086024;28;20035;-67
2022/03/28 07:50:25;;;;;;;16.38;7.03;;;6.10;99.90;;;;;;5086306;28;20032;-67
2022/03/28 07:52:51;;;;;;;16.02;6.45;;;6.10;99.90;;;;;;5096671;28;20025;-67
2022/03/28 07:55:18;;;;;;;17.30;7.63;;;6.30;99.90;;;;;;5098213;28;20032;-67
2022/03/28 07:57:44;;;;;;;18.75;8.13;;;6.50;99.90;;;;;;5099979;28;20028;-67
2022/03/28 08:00:13;;;;;;;17.48;7.80;;;6.40;99.90;;;;;;5096818;28;20040;-67
2022/03/28 08:02:40;;;;;;;18.15;8.27;;;6.50;99.90;;;;;;5093788;28;20031;-67
2022/03/28 08:05:07;;;;;;;19.33;7.93;;;6.50;99.90;;;;;;5092751;28;20076;-67
2022/03/28 08:07:33;;;;;;;21.33;8.57;;;6.40;99.90;;;;;;5096736;28;21232;-67
2022/03/28 08:09:59;;;;;;;22.45;9.27;;;6.50;99.90;;;;;;5092257;28;20345;-67
2022/03/28 08:12:25;;;;;;;21.05;9.85;;;6.60;99.90;;;;;;5093918;28;20073;-67
2022/03/28 08:14:51;;;;;;;23.77;10.10;;;6.60;99.90;;;;;;5099573;28;20032;-67
2022/03/28 08:17:19;;;;;;;21.13;9.43;;;6.30;99.90;;;;;;5093264;28;20028;-67
2022/03/28 08:19:45;;;;;;;20.83;9.30;;;6.60;99.90;;;;;;5100694;28;20040;-67
2022/03/28 08:22:10;;;;;;;20.73;9.45;;;6.60;99.90;;;;;;5100945;28;20112;-67
2022/03/28 08:24:36;;;;;;;23.65;9.80;;;6.50;99.90;;;;;;5101008;28;20024;-67
2022/03/28 08:27:02;;;;;;;21.10;9.85;;;6.60;99.90;;;;;;5098240;28;20021;-67
2022/03/28 08:29:27;;;;;;;20.00;9.05;;;6.50;99.90;;;;;;5099562;28;20125;-67
2022/03/28 08:31:53;;;;;;;24.02;9.70;;;6.80;99.90;;;;;;5102081;28;20020;-66
2022/03/28 08:34:19;;;;;;;22.90;10.38;;;7.00;99.90;;;;;;5082328;28;20024;-66
2022/03/28 08:36:45;;;;;;;22.92;10.18;;;7.00;99.90;;;;;;5099477;28;20036;-67
2022/03/28 08:39:11;;;;;;;23.73;10.45;;;6.60;99.90;;;;;;5088591;28;20044;-67
2022/03/28 08:41:37;;;;;;;21.10;10.10;;;6.80;99.90;;;;;;5085335;28;20028;-67
2022/03/28 08:44:03;;;;;;;24.42;10.65;;;6.70;99.90;;;;;;5080951;28;20016;-67
2022/03/28 08:46:30;;;;;;;23.60;10.75;;;6.60;99.90;;;;;;5084650;28;20024;-67
2022/03/28 08:48:58;;;;;;;23.95;10.52;;;6.80;99.90;;;;;;5083165;28;20032;-67
2022/03/28 08:51:24;;;;;;;24.50;10.70;;;6.80;99.90;;;;;;5087717;28;20028;-67
2022/03/28 08:53:50;;;;;;;26.73;10.80;;;7.00;99.90;;;;;;5082161;28;20028;-67
2022/03/28 08:56:16;;;;;;;26.45;11.55;;;7.10;99.90;;;;;;5080379;28;20112;-67
2022/03/28 08:58:42;;;;;;;24.13;10.48;;;7.10;99.90;;;;;;5096491;28;20055;-67
2022/03/28 09:01:08;;;;;;;26.63;11.38;;;7.10;99.90;;;;;;5081312;28;20033;-67
2022/03/28 09:03:47;;;;;;;23.85;10.52;;;7.30;99.90;;;;;;5096097;28;20527;-67
2022/03/28 09:06:37;;;;;;;27.23;11.43;;;7.50;99.90;;;;;;5101916;28;20020;-67
2022/03/28 09:09:25;;;;;;;24.05;10.43;;;7.60;99.90;;;;;;5096567;28;20020;-67
2022/03/28 09:12:06;;;;;;;23.20;10.13;;;7.70;99.90;;;;;;5099393;28;20024;-67
2022/03/28 09:14:37;;;;;;;23.80;9.63;;;7.80;99.90;;;;;;5099792;28;20028;-67
2022/03/28 09:17:13;;;;;;;23.55;9.70;;;7.90;99.90;;;;;;5100590;28;20133;-67
2022/03/28 09:19:50;;;;;;;18.20;8.18;;;7.90;99.90;;;;;;5096600;28;20077;-67
2022/03/28 09:22:21;;;;;;;17.58;9.10;;;8.00;99.90;;;;;;5098631;28;20067;-67
2022/03/28 09:24:48;;;;;;;20.93;9.00;;;8.10;99.90;;;;;;5088281;28;20107;-67
2022/03/28 09:27:28;;;;;;;18.63;8.43;;;8.00;99.90;;;;;;5095234;28;20373;-67
2022/03/28 09:29:58;;;;;;;19.25;8.52;;;8.00;99.90;;;;;;5099874;28;20028;-67
2022/03/28 09:32:36;;;;;;;17.50;7.82;;;8.30;99.90;;;;;;5099920;28;20020;-67
2022/03/28 09:35:19;;;;;;;17.33;7.75;;;8.40;99.90;;;;;;5099779;28;20097;-67
2022/03/28 09:37:48;;;;;;;20.33;8.98;;;8.60;99.90;;;;;;5098959;28;20057;-67
2022/03/28 09:40:29;;;;;;;19.75;8.60;;;8.80;99.90;;;;;;5098857;28;20036;-67
2022/03/28 09:42:55;;;;;;;18.17;8.88;;;8.90;99.90;;;;;;5096594;28;20032;-67
2022/03/28 09:45:27;;;;;;;15.65;7.82;;;9.00;99.90;;;;;;5102677;28;20020;-67
2022/03/28 09:48:02;;;;;;;19.58;8.40;;;9.10;99.90;;;;;;5100895;28;20039;-67
2022/03/28 09:50:56;;;;;;;16.58;8.00;;;8.90;99.90;;;;;;5100374;28;20023;-66
2022/03/28 09:53:31;;;;;;;16.90;8.18;;;9.10;99.90;;;;;;5096341;28;20474;-67
2022/03/28 09:56:03;;;;;;;16.98;8.13;;;9.10;99.90;;;;;;5095082;28;20023;-66
2022/03/28 09:58:46;;;;;;;;;;;9.10;99.90;;;;;;5105156;28;20028;-67
2022/03/28 10:01:22;;;;;;;18.15;7.82;;;9.30;99.90;;;;;;5093471;28;19908;-67
2022/03/28 10:04:05;;;;;;;18.70;8.65;;;9.40;99.90;;;;;;5090627;28;20109;-67
2022/03/28 10:06:31;;;;;;;18.33;8.55;;;9.50;99.90;;;;;;5096016;28;20024;-67
2022/03/28 10:08:57;;;;;;;18.50;7.70;;;9.70;99.90;;;;;;5096952;28;20077;-68
2022/03/28 10:11:25;;;;;;;16.15;7.93;;;9.80;99.90;;;;;;5112521;28;20024;-67
2022/03/28 10:13:50;;;;;;;16.52;7.65;;;9.60;99.90;;;;;;5092726;28;20013;-67
2022/03/28 10:16:17;;;;;;;16.83;7.80;;;9.90;99.90;;;;;;5095228;28;20060;-67
2022/03/28 10:18:47;;;;;;;14.68;7.03;;;9.80;99.90;;;;;;5096205;28;20073;-67
2022/03/28 10:21:29;;;;;;;16.55;7.57;;;9.80;99.90;;;;;;5093693;28;20028;-67
2022/03/28 10:24:08;;;;;;;15.63;7.63;;;9.90;99.90;;;;;;5093073;28;20027;-68
2022/03/28 10:26:38;;;;;;;18.90;9.00;;;9.80;99.90;;;;;;5098535;28;20031;-67
2022/03/28 10:29:05;;;;;;;14.82;7.93;;;9.80;99.90;;;;;;5102447;28;20020;-70
2022/03/28 10:31:33;;;;;;;17.15;8.30;;;9.80;99.90;;;;;;5094173;28;20028;-67
2022/03/28 10:34:00;;;;;;;15.63;7.47;;;9.90;99.90;;;;;;5101421;28;20012;-69
2022/03/28 10:36:31;;;;;;;15.02;7.53;;;10.10;99.90;;;;;;5100408;28;20115;-67
2022/03/28 10:39:35;;;;;;;16.17;8.47;;;9.80;99.90;;;;;;5101958;28;20055;-66
2022/03/28 10:42:07;;;;;;;16.88;8.20;;;10.00;99.90;;;;;;5082850;28;20340;-67
2022/03/28 10:44:45;;;;;;;16.55;8.95;;;10.30;99.90;;;;;;5084271;28;20024;-67
2022/03/28 10:47:13;;;;;;;19.60;9.18;;;10.20;99.90;;;;;;5083243;28;20060;-67
2022/03/28 10:49:43;;;;;;;16.55;8.93;;;10.10;99.90;;;;;;5099200;28;20035;-67
2022/03/28 10:52:15;;;;;;;16.33;8.70;;;10.30;99.90;;;;;;5081598;28;20398;-66
2022/03/28 10:54:41;;;;;;;20.45;8.68;;;10.70;99.90;;;;;;5083770;28;20091;-67
2022/03/28 10:57:25;;;;;;;20.23;10.15;;;10.80;99.90;;;;;;5089814;28;20033;-66
2022/03/28 11:00:09;;;;;;;16.95;9.23;;;11.20;99.90;;;;;;5082290;28;20040;-66
2022/03/28 11:02:35;;;;;;;18.60;9.43;;;11.40;99.90;;;;;;5098701;28;20081;-67
2022/03/28 11:05:12;;;;;;;18.40;9.23;;;11.60;99.90;;;;;;5098341;28;20027;-67
2022/03/28 11:07:38;;;;;;;18.73;9.50;;;11.80;99.90;;;;;;5084512;28;20028;-66
2022/03/28 11:10:05;;;;;;;18.90;9.75;;;12.30;99.90;;;;;;5103718;28;20059;-66
2022/03/28 11:12:37;;;;;;;20.92;10.43;;;12.30;99.90;;;;;;5101472;28;20016;-67
2022/03/28 11:15:18;;;;;;;16.45;9.15;;;12.50;99.90;;;;;;5104373;28;20016;-66
2022/03/28 11:17:55;;;;;;;19.45;9.93;;;13.20;99.90;;;;;;5099131;28;20079;-65
2022/03/28 11:20:24;;;;;;;20.27;10.05;;;13.60;99.90;;;;;;5103069;28;20044;-66
2022/03/28 11:23:08;;;;;;;18.48;10.68;;;13.90;99.90;;;;;;5101659;28;20020;-66
2022/03/28 11:25:35;;;;;;;19.67;9.88;;;13.80;99.90;;;;;;5091546;28;20033;-74
2022/03/28 11:28:11;;;;;;;20.65;10.65;;;13.50;99.90;;;;;;5085216;28;20044;-67
2022/03/28 11:30:59;;;;;;;19.30;9.85;;;13.40;99.90;;;;;;5085932;28;20077;-68
2022/03/28 11:33:39;;;;;;;20.42;10.60;;;13.20;99.90;;;;;;5086516;28;20020;-68
2022/03/28 11:36:12;;;;;;;20.08;11.30;;;13.30;99.90;;;;;;5085483;28;20090;-67
2022/03/28 11:38:56;;;;;;;21.50;10.68;;;13.20;99.90;;;;;;5088478;28;20059;-68
2022/03/28 11:41:25;;;;;;;17.63;10.45;;;13.50;99.90;;;;;;5092784;28;20103;-68
2022/03/28 11:43:56;;;;;;;20.17;10.50;;;13.70;99.90;;;;;;5087802;28;20024;-68
2022/03/28 11:46:24;;;;;;;21.50;11.60;;;13.60;99.90;;;;;;5089966;28;20040;-68
2022/03/28 11:49:00;;;;;;;19.98;10.20;;;14.40;99.90;;;;;;5085892;28;20042;-68
2022/03/28 11:51:28;;;;;;;22.20;11.48;;;16.50;99.90;;;;;;5085095;28;20025;-68
2022/03/28 11:54:16;;;;;;;21.05;11.27;;;18.20;97.80;;;;;;5096633;28;20480;-68
2022/03/28 11:59:30;;;;;;;22.95;11.38;;;17.60;99.90;;;;;;5090570;28;20047;-70
2022/03/28 12:01:57;;;;;;;19.80;11.57;;;19.40;77.40;;;;;;5113531;28;20066;-67
2022/03/28 12:04:23;;;;;;;22.48;12.65;;;19.50;67.70;;;;;;5091214;28;20033;-69
2022/03/28 12:06:51;;;;;;;21.30;11.95;;;18.80;69.90;;;;;;5091025;28;20053;-68
2022/03/28 12:09:17;;;;;;;21.98;12.63;;;19.90;77.40;;;;;;5094236;28;20023;-69
2022/03/28 12:11:52;;;;;;;22.13;11.80;;;21.10;66.60;;;;;;5088036;28;20603;-69
2022/03/28 12:14:18;;;;;;;20.33;11.80;;;21.30;59.00;;;;;;5086758;28;20028;-69
2022/03/28 12:16:50;;;;;;;22.50;12.57;;;21.90;55.00;;;;;;5084986;28;20021;-69
2022/03/28 12:19:20;;;;;;;21.58;12.48;;;22.40;53.60;;;;;;5094712;28;20024;-70
2022/03/28 12:21:46;;;;;;;22.85;12.95;;;22.10;53.30;;;;;;5086923;28;20028;-69
2022/03/28 12:24:12;;;;;;;21.70;12.70;;;21.60;52.20;;;;;;5097887;28;20020;-70
2022/03/28 12:26:45;;;;;;;20.75;12.50;;;21.90;49.70;;;;;;5088034;28;20058;-70
2022/03/28 12:29:11;;;;;;;22.25;13.18;;;22.60;52.00;;;;;;5086566;28;20039;-70
2022/03/28 12:31:41;;;;;;;24.63;12.88;;;22.30;50.70;;;;;;5081426;28;20119;-70
2022/03/28 12:34:07;;;;;;;23.52;12.45;;;22.50;49.90;;;;;;5085529;28;20032;-70
2022/03/28 12:36:34;;;;;;;18.45;11.65;;;22.60;45.90;;;;;;5097542;28;20040;-70
2022/03/28 12:39:10;;;;;;;20.20;12.75;;;23.00;47.30;;;;;;5085225;28;20071;-69
2022/03/28 12:41:40;;;;;;;19.60;12.40;;;23.50;47.80;;;;;;5081889;28;20025;-70
2022/03/28 12:44:22;;;;;;;22.02;12.88;;;23.60;46.30;;;;;;5096971;28;20148;-70
2022/03/28 12:46:47;;;;;;;20.05;13.05;;;23.90;46.00;;;;;;5100866;28;20028;-69
2022/03/28 12:49:19;;;;;;;19.90;13.30;;;23.80;45.30;;;;;;5095560;28;20046;-68
2022/03/28 12:51:46;;;;;;;23.67;13.13;;;24.00;45.30;;;;;;5085543;28;20042;-68